createdAt,value
2023-05-15T00:00:13.371Z,85.64
2023-05-15T00:01:13.395Z,85.87
2023-05-15T00:02:00.456Z,86.23
2023-05-15T00:02:55.527Z,86.85
2023-05-15T00:03:49.460Z,86.66
2023-05-15T00:04:43.474Z,87.90
2023-05-15T00:05:37.474Z,87.66
2023-05-15T00:06:31.420Z,87.93
2023-05-15T00:07:18.440Z,87.28
2023-05-15T00:07:52.499Z,86.79
2023-05-15T00:08:39.404Z,86.58
2023-05-15T00:09:13.522Z,85.87
2023-05-15T00:10:00.403Z,85.88
2023-05-15T00:10:34.508Z,86.42
2023-05-15T00:11:21.439Z,85.93
2023-05-15T00:11:55.588Z,86.67
2023-05-15T00:12:43.441Z,86.20
2023-05-15T00:13:17.598Z,86.39
2023-05-15T00:14:04.416Z,86.04
2023-05-15T00:14:38.466Z,86.29
2023-05-15T00:15:25.622Z,85.81
2023-05-15T00:15:59.624Z,85.64
2023-05-15T00:16:46.433Z,86.01
2023-05-15T00:17:20.575Z,85.45
2023-05-15T00:18:07.486Z,85.35
2023-05-15T00:18:41.511Z,85.51
2023-05-15T00:19:28.395Z,85.39
2023-05-15T00:20:02.652Z,87.79
2023-05-15T00:20:49.384Z,86.46
2023-05-15T00:21:23.483Z,86.82
2023-05-15T00:22:10.386Z,87.24
2023-05-15T00:22:44.488Z,88.12
2023-05-15T00:23:32.437Z,87.68
2023-05-15T00:24:06.489Z,87.75
2023-05-15T00:24:53.416Z,88.30
2023-05-15T00:25:27.486Z,88.65
2023-05-15T00:26:14.395Z,88.47
2023-05-15T00:26:48.467Z,87.87
2023-05-15T00:27:35.403Z,88.82
2023-05-15T00:28:09.472Z,87.66
2023-05-15T00:28:58.427Z,88.47
2023-05-15T00:29:32.527Z,87.85
2023-05-15T00:30:21.406Z,87.02
2023-05-15T00:30:55.673Z,87.02
2023-05-15T00:31:42.462Z,87.28
2023-05-15T00:32:16.519Z,87.19
2023-05-15T00:33:03.414Z,87.83
2023-05-15T00:33:37.527Z,87.18
2023-05-15T00:34:17.417Z,86.64
2023-05-15T00:34:57.470Z,87.48
2023-05-15T00:35:39.394Z,87.23
2023-05-15T00:36:21.634Z,87.23
2023-05-15T00:37:01.417Z,87.33
2023-05-15T00:37:41.744Z,89.14
2023-05-15T00:38:22.400Z,87.70
2023-05-15T00:39:02.566Z,87.47
2023-05-15T00:39:43.410Z,88.09
2023-05-15T00:40:28.511Z,88.20
2023-05-15T00:41:09.374Z,87.74
2023-05-15T00:41:50.596Z,87.51
2023-05-15T00:42:31.408Z,87.73
2023-05-15T00:43:12.491Z,88.13
2023-05-15T00:43:53.429Z,88.40
2023-05-15T00:44:33.471Z,87.44
2023-05-15T00:45:15.441Z,87.83
2023-05-15T00:45:56.481Z,88.62
2023-05-15T00:46:39.413Z,89.06
2023-05-15T00:47:20.668Z,88.59
2023-05-15T00:48:01.593Z,88.18
2023-05-15T00:48:42.565Z,88.27
2023-05-15T00:49:25.437Z,88.63
2023-05-15T00:50:06.534Z,89.13
2023-05-15T00:50:49.466Z,90.82
2023-05-15T00:51:29.570Z,90.08
2023-05-15T00:52:12.382Z,89.50
2023-05-15T00:52:52.586Z,89.77
2023-05-15T00:53:35.397Z,89.28
2023-05-15T00:54:16.533Z,90.11
2023-05-15T00:54:57.374Z,90.00
2023-05-15T00:55:38.487Z,90.13
2023-05-15T00:56:19.402Z,89.87
2023-05-15T00:57:01.471Z,90.51
2023-05-15T00:57:42.385Z,90.92
2023-05-15T00:58:24.623Z,90.59
2023-05-15T00:59:06.373Z,91.21
2023-05-15T00:59:49.459Z,91.28
2023-05-15T01:00:30.392Z,91.24
2023-05-15T01:01:11.103Z,92.17
2023-05-15T01:01:51.382Z,92.03
2023-05-15T01:02:31.571Z,92.00
2023-05-15T01:03:12.494Z,91.83
2023-05-15T01:03:53.469Z,92.12
2023-05-15T01:04:34.389Z,92.11
2023-05-15T01:05:15.464Z,92.06
2023-05-15T01:05:56.372Z,93.39
2023-05-15T01:06:39.455Z,93.65
2023-05-15T01:07:20.382Z,92.99
2023-05-15T01:08:50.457Z,91.88
2023-05-15T01:09:31.412Z,91.45
2023-05-15T01:10:13.487Z,91.95
2023-05-15T01:10:58.377Z,91.36
2023-05-15T01:11:38.516Z,91.79
2023-05-15T01:12:23.396Z,91.86
2023-05-15T01:13:04.476Z,92.18
2023-05-15T01:13:45.390Z,92.43
2023-05-15T01:14:25.515Z,92.58
2023-05-15T01:15:05.373Z,92.49
2023-05-15T01:15:45.575Z,92.89
2023-05-15T01:16:28.379Z,92.97
2023-05-15T01:17:08.465Z,93.06
2023-05-15T01:17:49.435Z,93.26
2023-05-15T01:18:32.601Z,93.57
2023-05-15T01:19:13.471Z,93.74
2023-05-15T01:19:55.554Z,94.04
2023-05-15T01:20:36.355Z,94.46
2023-05-15T01:21:57.452Z,95.64
2023-05-15T01:23:05.400Z,95.60
2023-05-15T01:23:57.472Z,94.88
2023-05-15T01:25:24.541Z,95.07
2023-05-15T01:26:22.427Z,95.24
2023-05-15T01:27:11.338Z,95.25
2023-05-15T01:28:28.400Z,95.16
2023-05-15T01:29:37.351Z,95.44
2023-05-15T01:30:44.357Z,96.39
2023-05-15T01:31:40.430Z,96.50
2023-05-15T01:32:58.393Z,96.96
2023-05-15T01:33:50.364Z,97.26
2023-05-15T01:34:25.470Z,98.59
2023-05-15T01:35:38.346Z,97.56
2023-05-15T01:36:31.475Z,98.20
2023-05-15T01:37:21.351Z,98.21
2023-05-15T01:38:01.415Z,98.51
2023-05-15T01:39:04.369Z,98.31
2023-05-15T01:39:40.416Z,99.41
2023-05-15T01:40:29.333Z,98.61
2023-05-15T01:41:22.235Z,98.91
2023-05-15T01:42:16.352Z,98.69
2023-05-15T01:43:02.453Z,98.95
2023-05-15T01:43:46.387Z,99.44
2023-05-15T01:44:40.379Z,99.32
2023-05-15T01:45:18.815Z,99.32
2023-05-15T01:45:53.717Z,100.00
2023-05-15T01:46:34.370Z,99.85
2023-05-15T01:47:45.572Z,100.00
2023-05-15T01:48:20.626Z,100.00
2023-05-15T01:49:01.355Z,100.00
2023-05-15T01:49:35.560Z,100.00
2023-05-15T01:50:20.361Z,100.00
2023-05-15T01:51:03.374Z,100.00
2023-05-15T01:51:45.338Z,100.00
2023-05-15T01:52:33.470Z,100.00
2023-05-15T01:53:21.310Z,100.00
2023-05-15T01:53:56.482Z,100.00
2023-05-15T01:54:44.335Z,100.00
2023-05-15T01:55:27.610Z,100.00
2023-05-15T01:56:24.358Z,100.00
2023-05-15T01:57:20.377Z,100.00
2023-05-15T01:58:15.321Z,100.00
2023-05-15T01:59:10.310Z,100.00
2023-05-15T02:00:05.326Z,100.00
2023-05-15T02:00:53.371Z,100.00
2023-05-15T02:01:28.442Z,100.00
2023-05-15T02:03:19.414Z,100.00
2023-05-15T02:04:15.350Z,100.00
2023-05-15T02:05:10.328Z,100.00
2023-05-15T02:06:04.359Z,100.00
2023-05-15T02:06:58.358Z,100.00
2023-05-15T02:07:52.329Z,100.00
2023-05-15T02:08:47.324Z,100.00
2023-05-15T02:09:41.331Z,100.00
2023-05-15T02:10:36.315Z,100.00
2023-05-15T02:11:23.366Z,100.00
2023-05-15T02:11:57.377Z,100.00
2023-05-15T02:12:47.323Z,100.00
2023-05-15T02:13:22.381Z,100.00
2023-05-15T02:14:11.341Z,100.00
2023-05-15T02:14:45.481Z,100.00
2023-05-15T02:15:34.330Z,100.00
2023-05-15T02:16:08.454Z,100.00
2023-05-15T02:16:49.350Z,100.00
2023-05-15T02:17:29.644Z,100.00
2023-05-15T02:18:10.312Z,100.00
2023-05-15T02:18:52.576Z,100.00
2023-05-15T02:19:33.322Z,100.00
2023-05-15T02:20:14.453Z,100.00
2023-05-15T02:20:55.315Z,100.00
2023-05-15T02:21:36.418Z,100.00
2023-05-15T02:22:17.337Z,100.00
2023-05-15T02:22:57.397Z,100.00
2023-05-15T02:23:37.348Z,100.00
2023-05-15T02:24:17.456Z,100.00
2023-05-15T02:24:58.318Z,100.00
2023-05-15T02:25:55.505Z,100.00
2023-05-15T02:27:18.374Z,100.00
2023-05-15T02:28:07.418Z,100.00
2023-05-15T02:29:05.314Z,100.00
2023-05-15T02:30:00.470Z,100.00
2023-05-15T02:31:04.286Z,100.00
2023-05-15T02:31:51.417Z,100.00
2023-05-15T02:33:10.326Z,100.00
2023-05-15T02:34:13.421Z,100.00
2023-05-15T02:35:45.342Z,100.00
2023-05-15T02:36:30.870Z,100.00
2023-05-15T02:37:16.297Z,100.00
2023-05-15T02:38:00.375Z,100.00
2023-05-15T02:39:09.309Z,100.00
2023-05-15T02:39:53.783Z,100.00
2023-05-15T02:40:34.316Z,100.00
2023-05-15T02:41:14.412Z,100.00
2023-05-15T02:41:55.291Z,100.00
2023-05-15T02:42:37.466Z,100.00
2023-05-15T02:43:18.302Z,100.00
2023-05-15T02:44:00.227Z,100.00
2023-05-15T02:44:43.301Z,100.00
2023-05-15T02:45:24.553Z,100.00
2023-05-15T02:46:06.329Z,100.00
2023-05-15T02:46:47.422Z,100.00
2023-05-15T02:47:29.312Z,100.00
2023-05-15T02:48:23.284Z,100.00
2023-05-15T02:49:17.307Z,100.00
2023-05-15T02:50:04.300Z,100.00
2023-05-15T02:50:38.432Z,100.00
2023-05-15T02:51:26.283Z,100.00
2023-05-15T02:52:00.447Z,100.00
2023-05-15T02:52:47.286Z,100.00
2023-05-15T02:53:22.059Z,100.00
2023-05-15T02:54:09.306Z,100.00
2023-05-15T02:54:43.366Z,100.00
2023-05-15T02:55:24.592Z,100.00
2023-05-15T02:56:05.436Z,100.00
2023-05-15T02:56:45.301Z,100.00
2023-05-15T02:57:25.368Z,100.00
2023-05-15T02:58:06.292Z,100.00
2023-05-15T02:58:46.358Z,100.00
2023-05-15T02:59:26.300Z,100.00
2023-05-15T03:00:09.141Z,100.00
2023-05-15T03:00:49.402Z,100.00
2023-05-15T03:01:29.506Z,100.00
2023-05-15T03:02:10.295Z,100.00
2023-05-15T03:02:50.499Z,100.00
2023-05-15T03:03:30.260Z,100.00
2023-05-15T03:04:10.468Z,100.00
2023-05-15T03:04:50.269Z,100.00
2023-05-15T03:05:44.288Z,100.00
2023-05-15T03:06:25.327Z,100.00
2023-05-15T03:07:05.564Z,100.00
2023-05-15T03:07:46.285Z,100.00
2023-05-15T03:08:26.368Z,100.00
2023-05-15T03:09:06.258Z,100.00
2023-05-15T03:09:47.413Z,100.00
2023-05-15T03:10:30.260Z,100.00
2023-05-15T03:11:10.482Z,100.00
2023-05-15T03:11:50.280Z,100.00
2023-05-15T03:12:30.421Z,100.00
2023-05-15T03:13:10.288Z,100.00
2023-05-15T03:13:50.429Z,100.00
2023-05-15T03:14:31.310Z,100.00
2023-05-15T03:15:13.499Z,100.00
2023-05-15T03:15:53.352Z,100.00
2023-05-15T03:16:37.002Z,100.00
2023-05-15T03:17:17.299Z,100.00
2023-05-15T03:17:57.427Z,100.00
2023-05-15T03:18:38.293Z,100.00
2023-05-15T03:19:18.879Z,100.00
2023-05-15T03:20:00.259Z,100.00
2023-05-15T03:20:40.384Z,100.00
2023-05-15T03:21:21.250Z,100.00
2023-05-15T03:22:01.366Z,100.00
2023-05-15T03:22:42.292Z,100.00
2023-05-15T03:23:22.382Z,100.00
2023-05-15T03:24:03.261Z,100.00
2023-05-15T03:24:43.378Z,100.00
2023-05-15T03:25:24.431Z,100.00
2023-05-15T03:26:04.473Z,100.00
2023-05-15T03:26:47.259Z,100.00
2023-05-15T03:27:27.354Z,100.00
2023-05-15T03:28:07.288Z,100.00
2023-05-15T03:28:47.324Z,100.00
2023-05-15T03:29:27.253Z,100.00
2023-05-15T03:30:07.366Z,100.00
2023-05-15T03:30:51.281Z,100.00
2023-05-15T03:31:31.359Z,100.00
2023-05-15T03:32:12.267Z,100.00
2023-05-15T03:32:52.412Z,100.00
2023-05-15T03:33:32.276Z,100.00
2023-05-15T03:34:12.364Z,100.00
2023-05-15T03:34:53.246Z,100.00
2023-05-15T03:35:33.472Z,100.00
2023-05-15T03:36:14.241Z,100.00
2023-05-15T03:36:55.426Z,100.00
2023-05-15T03:37:35.227Z,100.00
2023-05-15T03:38:15.431Z,100.00
2023-05-15T03:38:56.274Z,100.00
2023-05-15T03:39:36.325Z,100.00
2023-05-15T03:40:17.250Z,100.00
2023-05-15T03:40:57.340Z,100.00
2023-05-15T03:41:38.227Z,100.00
2023-05-15T03:42:23.604Z,100.00
2023-05-15T03:43:05.229Z,100.00
2023-05-15T03:43:45.343Z,100.00
2023-05-15T03:44:25.242Z,100.00
2023-05-15T03:45:05.487Z,100.00
2023-05-15T03:45:46.241Z,100.00
2023-05-15T03:46:26.460Z,100.00
2023-05-15T03:47:07.227Z,100.00
2023-05-15T03:47:48.389Z,100.00
2023-05-15T03:48:28.225Z,100.00
2023-05-15T03:49:08.345Z,100.00
2023-05-15T03:49:49.259Z,100.00
2023-05-15T03:50:29.359Z,100.00
2023-05-15T03:51:10.463Z,100.00
2023-05-15T03:51:52.403Z,100.00
2023-05-15T03:52:32.241Z,100.00
2023-05-15T03:53:12.347Z,100.00
2023-05-15T03:53:52.252Z,100.00
2023-05-15T03:54:32.319Z,100.00
2023-05-15T03:55:13.255Z,100.00
2023-05-15T03:55:53.356Z,100.00
2023-05-15T03:56:33.221Z,100.00
2023-05-15T03:57:13.329Z,100.00
2023-05-15T03:57:53.240Z,100.00
2023-05-15T03:58:33.412Z,100.00
2023-05-15T03:59:14.234Z,100.00
2023-05-15T03:59:54.363Z,100.00
2023-05-15T04:00:34.262Z,100.00
2023-05-15T04:01:14.335Z,100.00
2023-05-15T04:02:04.053Z,100.00
2023-05-15T04:02:59.404Z,100.00
2023-05-15T04:03:53.230Z,100.00
2023-05-15T04:04:47.255Z,100.00
2023-05-15T04:05:41.401Z,100.00
2023-05-15T04:06:35.226Z,100.00
2023-05-15T04:07:29.264Z,100.00
2023-05-15T04:08:23.230Z,100.00
2023-05-15T04:09:17.250Z,100.00
2023-05-15T04:10:11.246Z,100.00
2023-05-15T04:10:58.285Z,100.00
2023-05-15T04:11:34.707Z,100.00
2023-05-15T04:12:21.247Z,100.00
2023-05-15T04:12:55.366Z,100.00
2023-05-15T04:13:42.206Z,100.00
2023-05-15T04:14:16.342Z,100.00
2023-05-15T04:15:12.204Z,100.00
2023-05-15T04:15:47.418Z,100.00
2023-05-15T04:16:28.296Z,100.00
2023-05-15T04:17:08.376Z,100.00
2023-05-15T04:17:50.345Z,100.00
2023-05-15T04:18:30.462Z,100.00
2023-05-15T04:19:11.340Z,100.00
2023-05-15T04:19:51.336Z,100.00
2023-05-15T04:20:32.233Z,100.00
2023-05-15T04:21:12.308Z,100.00
2023-05-15T04:21:52.246Z,100.00
2023-05-15T04:22:32.296Z,100.00
2023-05-15T04:23:13.234Z,100.00
2023-05-15T04:23:53.368Z,100.00
2023-05-15T04:24:33.233Z,100.00
2023-05-15T04:25:15.151Z,100.00
2023-05-15T04:25:55.241Z,100.00
2023-05-15T04:26:35.483Z,100.00
2023-05-15T04:27:16.241Z,100.00
2023-05-15T04:27:56.575Z,100.00
2023-05-15T04:28:37.219Z,100.00
2023-05-15T04:29:17.334Z,100.00
2023-05-15T04:29:57.240Z,100.00
2023-05-15T04:30:38.329Z,100.00
2023-05-15T04:31:19.263Z,100.00
2023-05-15T04:32:00.680Z,100.00
2023-05-15T04:32:41.293Z,100.00
2023-05-15T04:33:21.394Z,100.00
2023-05-15T04:34:01.210Z,100.00
2023-05-15T04:34:41.305Z,100.00
2023-05-15T04:35:22.274Z,100.00
2023-05-15T04:36:02.291Z,100.00
2023-05-15T04:36:43.261Z,100.00
2023-05-15T04:37:23.310Z,100.00
2023-05-15T04:38:04.272Z,100.00
2023-05-15T04:38:44.356Z,100.00
2023-05-15T04:39:24.218Z,100.00
2023-05-15T04:40:06.789Z,100.00
2023-05-15T04:40:47.220Z,100.00
2023-05-15T04:41:27.344Z,100.00
2023-05-15T04:42:11.387Z,100.00
2023-05-15T04:42:52.309Z,100.00
2023-05-15T04:43:32.237Z,100.00
2023-05-15T04:44:15.335Z,100.00
2023-05-15T04:44:56.248Z,100.00
2023-05-15T04:45:36.398Z,100.00
2023-05-15T04:46:17.268Z,100.00
2023-05-15T04:46:57.280Z,100.00
2023-05-15T04:47:38.290Z,100.00
2023-05-15T04:48:19.217Z,100.00
2023-05-15T04:49:00.846Z,100.00
2023-05-15T04:49:41.298Z,100.00
2023-05-15T04:50:22.414Z,100.00
2023-05-15T04:51:02.361Z,100.00
2023-05-15T04:51:42.200Z,100.00
2023-05-15T04:52:23.265Z,100.00
2023-05-15T04:53:04.201Z,100.00
2023-05-15T04:53:45.366Z,100.00
2023-05-15T04:54:26.268Z,100.00
2023-05-15T04:55:06.322Z,100.00
2023-05-15T04:55:46.224Z,100.00
2023-05-15T04:56:26.334Z,100.00
2023-05-15T04:57:06.211Z,100.00
2023-05-15T04:57:46.364Z,100.00
2023-05-15T04:58:27.224Z,100.00
2023-05-15T04:59:07.268Z,100.00
2023-05-15T04:59:47.213Z,100.00
2023-05-15T05:00:27.377Z,100.00
2023-05-15T05:01:07.204Z,100.00
2023-05-15T05:01:47.318Z,100.00
2023-05-15T05:02:29.231Z,100.00
2023-05-15T05:03:09.543Z,100.00
2023-05-15T05:03:50.248Z,100.00
2023-05-15T05:04:30.559Z,100.00
2023-05-15T05:05:12.204Z,100.00
2023-05-15T05:05:52.274Z,100.00
2023-05-15T05:06:33.206Z,100.00
2023-05-15T05:07:13.261Z,100.00
2023-05-15T05:07:53.164Z,100.00
2023-05-15T05:08:33.302Z,100.00
2023-05-15T05:09:13.167Z,100.00
2023-05-15T05:09:53.283Z,100.00
2023-05-15T05:10:34.309Z,100.00
2023-05-15T05:11:14.295Z,100.00
2023-05-15T05:11:55.238Z,100.00
2023-05-15T05:12:35.289Z,100.00
2023-05-15T05:13:15.178Z,100.00
2023-05-15T05:13:56.317Z,100.00
2023-05-15T05:14:38.276Z,100.00
2023-05-15T05:15:18.287Z,100.00
2023-05-15T05:15:58.255Z,100.00
2023-05-15T05:16:38.328Z,100.00
2023-05-15T05:17:18.153Z,100.00
2023-05-15T05:18:00.421Z,100.00
2023-05-15T05:18:41.175Z,100.00
2023-05-15T05:19:21.305Z,100.00
2023-05-15T05:20:02.166Z,100.00
2023-05-15T05:20:42.272Z,100.00
2023-05-15T05:21:22.193Z,100.00
2023-05-15T05:22:04.950Z,100.00
2023-05-15T05:22:47.241Z,100.00
2023-05-15T05:23:30.376Z,100.00
2023-05-15T05:24:11.224Z,100.00
2023-05-15T05:24:51.290Z,100.00
2023-05-15T05:25:31.204Z,100.00
2023-05-15T05:26:11.359Z,100.00
2023-05-15T05:26:55.182Z,100.00
2023-05-15T05:27:35.231Z,100.00
2023-05-15T05:28:15.161Z,100.00
2023-05-15T05:28:55.286Z,100.00
2023-05-15T05:29:40.225Z,100.00
2023-05-15T05:30:20.829Z,100.00
2023-05-15T05:31:02.219Z,100.00
2023-05-15T05:31:42.337Z,100.00
2023-05-15T05:32:22.198Z,100.00
2023-05-15T05:33:02.436Z,100.00
2023-05-15T05:33:43.163Z,100.00
2023-05-15T05:34:23.329Z,100.00
2023-05-15T05:35:04.176Z,100.00
2023-05-15T05:35:44.524Z,100.00
2023-05-15T05:36:25.460Z,100.00
2023-05-15T05:37:05.291Z,100.00
2023-05-15T05:37:45.207Z,100.00
2023-05-15T05:38:27.594Z,100.00
2023-05-15T05:39:08.168Z,100.00
2023-05-15T05:39:48.268Z,100.00
2023-05-15T05:40:28.177Z,100.00
2023-05-15T05:41:09.803Z,100.00
2023-05-15T05:41:51.210Z,100.00
2023-05-15T05:42:31.243Z,100.00
2023-05-15T05:43:12.218Z,100.00
2023-05-15T05:43:52.285Z,100.00
2023-05-15T05:44:33.201Z,100.00
2023-05-15T05:45:14.236Z,100.00
2023-05-15T05:45:55.155Z,100.00
2023-05-15T05:46:36.326Z,100.00
2023-05-15T05:47:18.225Z,100.00
2023-05-15T05:47:58.279Z,100.00
2023-05-15T05:48:40.197Z,100.00
2023-05-15T05:49:22.777Z,100.00
2023-05-15T05:50:03.164Z,100.00
2023-05-15T05:50:44.342Z,100.00
2023-05-15T05:51:25.153Z,100.00
2023-05-15T05:52:13.233Z,100.00
2023-05-15T05:52:53.149Z,100.00
2023-05-15T05:53:36.066Z,100.00
2023-05-15T05:54:25.257Z,100.00
2023-05-15T05:55:11.302Z,100.00
2023-05-15T05:55:52.192Z,100.00
2023-05-15T05:56:32.251Z,100.00
2023-05-15T05:57:14.142Z,100.00
2023-05-15T05:57:58.297Z,100.00
2023-05-15T05:58:39.205Z,100.00
2023-05-15T05:59:19.297Z,100.00
2023-05-15T06:00:02.464Z,100.00
2023-05-15T06:00:43.384Z,100.00
2023-05-15T06:01:50.844Z,100.00
2023-05-15T06:02:53.343Z,100.00
2023-05-15T06:03:34.319Z,100.00
2023-05-15T06:04:15.602Z,100.00
2023-05-15T06:04:56.258Z,100.00
2023-05-15T06:05:38.177Z,100.00
2023-05-15T06:06:26.587Z,100.00
2023-05-15T06:07:08.128Z,100.00
2023-05-15T06:07:50.813Z,100.00
2023-05-15T06:08:32.146Z,100.00
2023-05-15T06:09:12.226Z,100.00
2023-05-15T06:09:55.136Z,100.00
2023-05-15T06:10:35.564Z,100.00
2023-05-15T06:11:16.220Z,100.00
2023-05-15T06:11:56.412Z,100.00
2023-05-15T06:12:39.148Z,100.00
2023-05-15T06:13:23.557Z,100.00
2023-05-15T06:14:04.130Z,100.00
2023-05-15T06:14:45.337Z,100.00
2023-05-15T06:15:25.280Z,100.00
2023-05-15T06:16:08.275Z,100.00
2023-05-15T06:16:50.226Z,100.00
2023-05-15T06:17:30.342Z,100.00
2023-05-15T06:18:21.146Z,100.00
2023-05-15T06:18:55.315Z,100.00
2023-05-15T06:19:42.133Z,100.00
2023-05-15T06:20:16.430Z,100.00
2023-05-15T06:21:07.159Z,100.00
2023-05-15T06:21:41.249Z,100.00
2023-05-15T06:22:21.144Z,100.00
2023-05-15T06:23:16.128Z,100.00
2023-05-15T06:24:10.126Z,100.00
2023-05-15T06:25:04.164Z,100.00
2023-05-15T06:26:00.621Z,100.00
2023-05-15T06:26:54.100Z,100.00
2023-05-15T06:27:41.212Z,100.00
2023-05-15T06:28:15.187Z,100.00
2023-05-15T06:29:03.113Z,100.00
2023-05-15T06:29:37.273Z,100.00
2023-05-15T06:30:24.324Z,100.00
2023-05-15T06:30:58.230Z,100.00
2023-05-15T06:31:45.122Z,100.00
2023-05-15T06:32:19.191Z,100.00
2023-05-15T06:33:06.175Z,100.00
2023-05-15T06:33:45.250Z,100.00
2023-05-15T06:34:34.134Z,100.00
2023-05-15T06:35:09.213Z,100.00
2023-05-15T06:35:58.146Z,100.00
2023-05-15T06:36:32.290Z,100.00
2023-05-15T06:37:19.164Z,100.00
2023-05-15T06:37:53.339Z,100.00
2023-05-15T06:38:33.133Z,100.00
2023-05-15T06:39:13.254Z,100.00
2023-05-15T06:39:54.114Z,100.00
2023-05-15T06:40:34.251Z,100.00
2023-05-15T06:41:16.169Z,100.00
2023-05-15T06:42:01.168Z,100.00
2023-05-15T06:42:41.154Z,100.00
2023-05-15T06:43:21.207Z,100.00
2023-05-15T06:44:05.236Z,100.00
2023-05-15T06:44:45.273Z,100.00
2023-05-15T06:45:26.365Z,100.00
2023-05-15T06:46:08.791Z,100.00
2023-05-15T06:46:52.202Z,100.00
2023-05-15T06:47:32.431Z,100.00
2023-05-15T06:48:14.141Z,100.00
2023-05-15T06:48:55.228Z,100.00
2023-05-15T06:49:36.122Z,100.00
2023-05-15T06:50:17.184Z,100.00
2023-05-15T06:50:58.188Z,100.00
2023-05-15T06:51:38.251Z,100.00
2023-05-15T06:52:18.103Z,100.00
2023-05-15T06:52:58.207Z,100.00
2023-05-15T06:53:39.118Z,100.00
2023-05-15T06:54:19.210Z,100.00
2023-05-15T06:55:00.184Z,100.00
2023-05-15T06:55:40.223Z,100.00
2023-05-15T06:56:20.140Z,100.00
2023-05-15T06:57:00.173Z,100.00
2023-05-15T06:57:41.072Z,100.00
2023-05-15T06:58:21.196Z,100.00
2023-05-15T06:59:01.071Z,100.00
2023-05-15T06:59:41.245Z,100.00
2023-05-15T07:00:22.114Z,100.00
2023-05-15T07:01:03.936Z,100.00
2023-05-15T07:01:45.170Z,100.00
2023-05-15T07:02:25.260Z,100.00
2023-05-15T07:03:05.215Z,100.00
2023-05-15T07:03:45.259Z,100.00
2023-05-15T07:04:25.214Z,100.00
2023-05-15T07:05:05.282Z,100.00
2023-05-15T07:05:46.101Z,100.00
2023-05-15T07:06:26.522Z,100.00
2023-05-15T07:07:06.107Z,100.00
2023-05-15T07:07:46.292Z,100.00
2023-05-15T07:08:26.130Z,100.00
2023-05-15T07:09:07.179Z,100.00
2023-05-15T07:09:48.092Z,100.00
2023-05-15T07:10:28.386Z,100.00
2023-05-15T07:11:09.132Z,100.00
2023-05-15T07:11:52.155Z,100.00
2023-05-15T07:12:33.088Z,100.00
2023-05-15T07:13:13.173Z,100.00
2023-05-15T07:13:54.113Z,100.00
2023-05-15T07:14:35.389Z,100.00
2023-05-15T07:15:16.127Z,100.00
2023-05-15T07:15:56.341Z,100.00
2023-05-15T07:16:37.208Z,100.00
2023-05-15T07:17:17.594Z,100.00
2023-05-15T07:17:59.111Z,100.00
2023-05-15T07:18:39.288Z,100.00
2023-05-15T07:19:20.101Z,100.00
2023-05-15T07:20:00.159Z,100.00
2023-05-15T07:20:40.167Z,100.00
2023-05-15T07:21:20.220Z,100.00
2023-05-15T07:22:03.187Z,100.00
2023-05-15T07:22:55.782Z,100.00
2023-05-15T07:23:37.093Z,100.00
2023-05-15T07:24:17.145Z,100.00
2023-05-15T07:24:57.042Z,100.00
2023-05-15T07:25:37.361Z,100.00
2023-05-15T07:26:27.909Z,100.00
2023-05-15T07:27:22.092Z,100.00
2023-05-15T07:28:16.088Z,100.00
2023-05-15T07:29:10.983Z,100.00
2023-05-15T07:30:07.075Z,100.00
2023-05-15T07:31:03.456Z,100.00
2023-05-15T07:31:57.205Z,100.00
2023-05-15T07:32:44.161Z,100.00
2023-05-15T07:33:18.224Z,100.00
2023-05-15T07:34:05.075Z,100.00
2023-05-15T07:34:39.242Z,100.00
2023-05-15T07:35:26.301Z,100.00
2023-05-15T07:36:00.169Z,100.00
2023-05-15T07:36:47.077Z,100.00
2023-05-15T07:37:21.191Z,100.00
2023-05-15T07:38:08.149Z,100.00
2023-05-15T07:38:42.131Z,100.00
2023-05-15T07:39:29.112Z,100.00
2023-05-15T07:40:04.196Z,100.00
2023-05-15T07:40:51.103Z,100.00
2023-05-15T07:41:25.138Z,100.00
2023-05-15T07:42:13.108Z,100.00
2023-05-15T07:42:47.203Z,100.00
2023-05-15T07:43:27.056Z,100.00
2023-05-15T07:44:07.201Z,100.00
2023-05-15T07:44:49.348Z,100.00
2023-05-15T07:45:30.181Z,100.00
2023-05-15T07:46:11.164Z,100.00
2023-05-15T07:46:51.529Z,100.00
2023-05-15T07:47:31.049Z,100.00
2023-05-15T07:48:25.235Z,100.00
2023-05-15T07:49:06.120Z,100.00
2023-05-15T07:49:46.140Z,100.00
2023-05-15T07:50:27.054Z,100.00
2023-05-15T07:51:07.114Z,100.00
2023-05-15T07:51:47.059Z,100.00
2023-05-15T07:52:27.160Z,100.00
2023-05-15T07:53:07.315Z,100.00
2023-05-15T07:53:47.263Z,100.00
2023-05-15T07:54:28.059Z,100.00
2023-05-15T07:55:08.228Z,100.00
2023-05-15T07:55:51.099Z,100.00
2023-05-15T07:56:31.158Z,100.00
2023-05-15T07:57:12.026Z,100.00
2023-05-15T07:57:53.722Z,100.00
2023-05-15T07:58:35.064Z,100.00
2023-05-15T07:59:15.179Z,100.00
2023-05-15T07:59:55.048Z,100.00
2023-05-15T08:00:38.364Z,100.00
2023-05-15T08:03:24.198Z,100.00
2023-05-15T08:04:22.126Z,100.00
2023-05-15T08:05:10.057Z,100.00
2023-05-15T08:05:44.123Z,100.00
2023-05-15T08:06:31.043Z,100.00
2023-05-15T08:07:05.245Z,100.00
2023-05-15T08:07:52.067Z,100.00
2023-05-15T08:08:26.120Z,100.00
2023-05-15T08:09:13.059Z,100.00
2023-05-15T08:09:47.145Z,100.00
2023-05-15T08:10:34.033Z,100.00
2023-05-15T08:11:08.157Z,100.00
2023-05-15T08:11:55.046Z,100.00
2023-05-15T08:12:29.127Z,100.00
2023-05-15T08:13:16.058Z,100.00
2023-05-15T08:13:50.262Z,100.00
2023-05-15T08:14:37.031Z,100.00
2023-05-15T08:15:11.102Z,100.00
2023-05-15T08:15:58.062Z,100.00
2023-05-15T08:16:32.191Z,100.00
2023-05-15T08:17:19.079Z,100.00
2023-05-15T08:17:53.149Z,100.00
2023-05-15T08:18:40.081Z,100.00
2023-05-15T08:19:14.203Z,100.00
2023-05-15T08:20:02.108Z,100.00
2023-05-15T08:20:36.281Z,100.00
2023-05-15T08:21:23.115Z,100.00
2023-05-15T08:21:57.101Z,100.00
2023-05-15T08:22:44.018Z,100.00
2023-05-15T08:23:18.128Z,100.00
2023-05-15T08:24:07.048Z,100.00
2023-05-15T08:24:41.126Z,100.00
2023-05-15T08:25:28.005Z,100.00
2023-05-15T08:26:02.129Z,100.00
2023-05-15T08:26:50.030Z,100.00
2023-05-15T08:27:24.116Z,100.00
2023-05-15T08:28:12.028Z,100.00
2023-05-15T08:28:46.219Z,100.00
2023-05-15T08:29:34.023Z,100.00
2023-05-15T08:30:08.497Z,100.00
2023-05-15T08:30:55.073Z,100.00
2023-05-15T08:31:29.219Z,100.00
2023-05-15T08:32:10.058Z,100.00
2023-05-15T08:32:51.151Z,100.00
2023-05-15T08:33:31.046Z,100.00
2023-05-15T08:34:11.273Z,100.00
2023-05-15T08:34:52.021Z,100.00
2023-05-15T08:35:32.187Z,100.00
2023-05-15T08:36:14.029Z,100.00
2023-05-15T08:36:54.088Z,100.00
2023-05-15T08:37:35.052Z,100.00
2023-05-15T08:38:15.119Z,100.00
2023-05-15T08:38:56.019Z,100.00
2023-05-15T08:39:36.149Z,100.00
2023-05-15T08:40:17.619Z,100.00
2023-05-15T08:41:01.148Z,100.00
2023-05-15T08:41:49.006Z,100.00
2023-05-15T08:42:44.040Z,100.00
2023-05-15T08:43:39.981Z,100.00
2023-05-15T08:44:35.017Z,100.00
2023-05-15T08:45:28.990Z,100.00
2023-05-15T08:46:23.059Z,100.00
2023-05-15T08:47:18.014Z,100.00
2023-05-15T08:48:06.132Z,100.00
2023-05-15T08:48:44.279Z,100.00
2023-05-15T08:49:31.013Z,100.00
2023-05-15T08:50:15.255Z,100.00
2023-05-15T08:51:05.010Z,100.00
2023-05-15T08:51:39.078Z,100.00
2023-05-15T08:52:27.024Z,100.00
2023-05-15T08:53:03.071Z,100.00
2023-05-15T08:53:44.029Z,100.00
2023-05-15T08:54:25.089Z,100.00
2023-05-15T08:55:07.993Z,100.00
2023-05-15T08:55:49.101Z,100.00
2023-05-15T08:56:28.966Z,100.00
2023-05-15T08:57:09.117Z,100.00
2023-05-15T08:57:50.995Z,100.00
2023-05-15T08:58:32.180Z,100.00
2023-05-15T08:59:13.040Z,100.00
2023-05-15T08:59:53.146Z,100.00
2023-05-15T09:00:34.032Z,100.00
2023-05-15T09:01:15.144Z,100.00
2023-05-15T09:01:56.060Z,100.00
2023-05-15T09:02:37.564Z,100.00